Latest Weather Observations for Wellcamp Airport

IDQ60901

Issued at 7:51 pm EST Monday 17 December 2018 (issued every 10 minutes, with the page automatically refreshed every 10 minutes)

About weather observations | Map of Brisbane area stations | Latest observations for Brisbane area | Other Formats
Station Details ID: 541150 Name: WELLCAMP AIRPORT Lat: -27.55 Lon: 151.78 Height: 436.98 m
Data from the previous 72 hours. | See also: Recent months for locations in Queensland
Date/Time
EST
Temp
°C
App
Temp
°C
Dew
Point
°C
Rel
Hum
%
Delta-T
°C
Wind Press
QNH
hPa
Press
MSL
hPa
Rain since
9am
mm
Dir  Spd
km/h
Gust
km/h
Spd
kts
Gust
kts
17/07:30pm 22.4 19.5 19.2 82 2.1 E 33 43 18 23 1011.3 1008.9 0.0
17/07:00pm 22.9 20.2 19.7 82 2.1 E 33 44 18 24 1010.8 1008.4 0.0
17/06:30pm 23.7 21.6 19.8 79 2.6 E 30 44 16 24 1010.6 1008.2 0.0
17/06:00pm 24.8 22.2 19.8 74 3.3 E 33 44 18 24 1010.3 1007.9 0.0
17/05:30pm 25.8 23.1 19.7 69 4.0 E 33 46 18 25 1009.7 1007.3 0.0
17/05:00pm 26.4 23.6 19.5 66 4.5 E 33 44 18 24 1009.4 1007.0 0.0
17/04:30pm 27.1 24.6 19.7 64 4.9 E 32 39 17 21 1009.1 1006.7 0.0
17/04:00pm 28.7 27.3 19.6 58 6.0 E 26 35 14 19 1009.1 1006.7 0.0
17/03:30pm 28.3 27.7 19.8 60 5.6 E 22 33 12 18 1009.2 1006.8 0.0
17/03:00pm 29.3 28.4 19.9 57 6.3 E 24 32 13 17 1009.2 1006.8 0.0
17/02:30pm 28.5 28.1 19.4 57 6.0 E 20 28 11 15 1009.5 1007.1 0.0
17/02:00pm 28.3 27.1 19.2 57 6.0 E 24 32 13 17 1009.7 1007.3 0.0
17/01:30pm 28.6 28.3 19.5 58 6.0 E 20 32 11 17 1009.8 1007.4 0.0
17/01:00pm 28.1 27.4 19.6 60 5.6 E 22 32 12 17 1010.0 1007.6 0.0
17/12:30pm 27.6 27.4 19.4 61 5.4 E 19 28 10 15 1010.0 1007.6 0.0
17/12:00pm 26.8 26.5 20.4 68 4.3 ESE 22 33 12 18 1010.3 1007.9 0.0
17/11:30am 26.0 25.7 19.2 66 4.4 ESE 19 28 10 15 1010.8 1008.4 0.0
17/11:00am 25.6 25.7 19.9 70 3.8 E 19 30 10 16 1011.2 1008.8 0.0
17/10:30am 26.5 27.7 20.6 70 3.9 E 15 20 8 11 1011.4 1009.0 0.0
17/10:00am 24.5 25.4 20.0 76 3.0 E 15 22 8 12 1011.6 1009.2 0.0
17/09:30am 23.5 23.9 19.8 80 2.4 E 17 20 9 11 1011.9 1009.5 0.0
17/09:22am 23.8 23.7 19.9 79 2.6 ESE 20 24 11 13 1011.9 1009.5 0.0
17/09:00am 23.5 23.3 19.4 78 2.7 ESE 19 26 10 14 1011.9 1009.5 7.4
17/08:30am 22.6 23.0 19.8 84 1.8 ESE 17 22 9 12 1012.1 1009.7 7.4
17/08:00am 22.2 22.5 19.6 85 1.7 E 17 22 9 12 1012.0 1009.6 7.4
17/07:30am 22.8 23.0 20.1 85 1.8 E 19 28 10 15 1011.8 1009.4 7.4
17/07:00am 22.0 22.3 19.7 87 1.5 E 17 22 9 12 1011.7 1009.3 7.4
17/06:56am 21.9 22.6 19.6 87 1.5 E 15 22 8 12 1011.7 1009.3 7.4
17/06:30am 21.6 22.2 19.5 88 1.4 E 15 22 8 12 1011.3 1008.9 7.4
17/06:00am 21.1 20.6 19.2 89 1.2 E 20 30 11 16 1010.7 1008.3 7.4
17/05:30am 20.7 21.7 19.5 93 0.8 E 13 19 7 10 1010.6 1008.2 7.4
17/05:00am 20.6 21.9 19.4 93 0.8 ENE 11 15 6 8 1010.0 1007.6 7.4
17/04:30am 21.0 21.6 19.5 91 1.0 E 15 20 8 11 1009.7 1007.3 7.4
17/04:25am 21.0 22.0 19.5 91 1.0 E 13 19 7 10 1009.6 1007.2 7.4
17/04:00am 20.9 22.6 19.4 91 1.0 ENE 9 15 5 8 1009.3 1006.9 7.4
17/03:30am 21.0 23.2 19.5 91 1.0 ENE 7 17 4 9 1009.2 1006.8 7.4
17/03:00am 20.9 22.2 19.4 91 1.0 NE 11 15 6 8 1009.1 1006.7 7.4
17/02:39am 20.8 22.5 19.3 91 1.0 NE 9 17 5 9 1008.8 1006.4 7.4
17/02:30am 20.7 22.3 19.2 91 1.0 NE 9 15 5 8 1008.7 1006.3 7.4
17/02:00am 20.8 21.8 19.5 92 0.8 ENE 13 22 7 12 1008.6 1006.2 7.2
17/01:30am 20.9 19.9 19.6 92 0.8 ENE 24 33 13 18 1008.7 1006.3 7.0
17/01:00am 20.8 21.4 19.5 92 0.8 ENE 15 24 8 13 1009.6 1007.2 7.0
17/12:30am 20.8 20.1 19.5 92 0.8 ENE 22 32 12 17 1009.1 1006.7 6.6
17/12:00am 21.0 20.2 19.3 90 1.1 NE 22 33 12 18 1009.6 1007.2 6.2
 
Date/Time
EST
Temp
°C
App
Temp
°C
Dew
Point
°C
Rel
Hum
%
Delta-T
°C
Wind Press
QNH
hPa
Press
MSL
hPa
Rain since
9am
mm
Dir  Spd
km/h
Gust
km/h
Spd
kts
Gust
kts
16/11:30pm 21.1 20.1 19.7 92 0.9 NE 24 33 13 18 1010.0 1007.6 5.8
16/11:00pm 21.2 22.8 20.0 93 0.8 ENE 11 17 6 9 1010.9 1008.5 5.4
16/10:30pm 21.3 24.0 20.3 94 0.7 SE 6 9 3 5 1011.4 1009.0 4.6
16/10:00pm 21.4 24.1 20.6 95 0.5 SSE 7 11 4 6 1011.7 1009.3 3.8
16/09:30pm 21.6 24.3 20.2 92 0.9 E 6 9 3 5 1011.6 1009.2 3.4
16/09:00pm 21.6 23.3 20.1 91 1.0 E 11 17 6 9 1011.3 1008.9 2.4
16/08:39pm 21.9 23.3 20.4 91 1.0 ESE 13 19 7 10 1011.1 1008.7 2.0
16/08:30pm 22.0 23.5 20.6 92 0.9 E 13 19 7 10 1011.1 1008.7 1.8
16/08:00pm 22.0 23.4 20.3 90 1.1 E 13 24 7 13 1010.9 1008.5 1.0
16/07:30pm 22.0 22.0 20.1 89 1.2 E 20 30 11 16 1010.0 1007.6 0.4
16/07:24pm 22.1 22.1 20.2 89 1.2 E 20 32 11 17 1009.9 1007.5 0.4
16/07:01pm 22.3 22.8 20.8 91 1.0 E 19 26 10 14 1009.9 1007.5 0.2
16/07:00pm 22.4 22.9 20.9 91 1.0 E 19 26 10 14 1009.9 1007.5 0.2
16/06:30pm 22.7 23.4 20.4 87 1.5 ESE 17 32 9 17 1009.3 1006.9 0.0
16/06:22pm 22.8 23.7 20.9 89 1.3 ESE 17 26 9 14 1009.6 1007.2 0.0
16/06:00pm 23.0 22.7 20.3 85 1.8 E 22 32 12 17 1009.2 1006.8 0.0
16/05:32pm 23.3 22.7 20.4 84 1.9 E 24 35 13 19 1008.8 1006.4 0.0
16/05:30pm 23.3 22.3 20.4 84 1.9 E 26 37 14 20 1008.8 1006.4 0.0
16/05:00pm 23.7 21.1 20.0 80 2.4 E 33 44 18 24 1008.1 1005.6 0.0
16/04:30pm 24.2 22.6 20.1 78 2.7 E 28 37 15 20 1008.1 1005.6 0.0
16/04:00pm 25.2 22.5 20.5 75 3.1 E 35 44 19 24 1007.6 1005.2 0.0
16/03:30pm 25.5 22.7 20.3 73 3.4 E 35 44 19 24 1007.5 1005.1 0.0
16/03:00pm 25.6 23.4 20.4 73 3.5 ENE 32 43 17 23 1007.9 1005.4 0.0
16/02:30pm 25.8 23.5 20.6 73 3.5 E 33 43 18 23 1008.2 1005.8 0.0
16/02:00pm 26.1 24.0 20.9 73 3.5 E 33 44 18 24 1008.3 1005.9 0.0
16/01:30pm 28.0 25.8 20.8 65 4.8 E 33 46 18 25 1008.5 1006.1 0.0
16/01:00pm 28.3 25.5 20.3 62 5.4 E 35 48 19 26 1008.8 1006.4 0.0
16/12:30pm 27.7 26.0 21.3 68 4.3 ENE 32 43 17 23 1009.2 1006.8 0.0
16/12:00pm 28.0 26.6 21.1 66 4.7 E 30 41 16 22 1009.7 1007.3 0.0
16/11:30am 27.6 27.2 20.9 67 4.5 E 24 33 13 18 1010.3 1007.9 0.0
16/11:00am 27.6 27.5 21.4 69 4.2 E 24 33 13 18 1010.4 1008.0 0.0
16/10:30am 26.6 27.1 21.1 72 3.7 E 20 30 11 16 1010.8 1008.4 0.0
16/10:00am 26.2 26.4 21.4 75 3.2 E 22 32 12 17 1011.3 1008.9 0.0
16/09:49am 26.3 26.5 21.3 74 3.4 E 22 30 12 16 1011.4 1009.0 0.0
16/09:30am 25.6 25.8 21.3 77 2.9 E 22 30 12 16 1011.2 1008.8 0.0
16/09:29am 25.5 25.6 21.2 77 2.9 E 22 30 12 16 1011.2 1008.8 0.0
16/09:00am 25.5 26.7 21.4 78 2.8 E 17 28 9 15 1011.1 1008.7 0.6
16/08:30am 24.6 24.9 21.5 83 2.1 E 22 30 12 16 1011.2 1008.8 0.6
16/08:01am 24.0 24.7 21.5 86 1.7 ENE 20 26 11 14 1011.5 1009.1 0.6
16/08:00am 23.9 24.4 21.2 85 1.8 ENE 20 26 11 14 1011.5 1009.1 0.6
16/07:30am 23.7 24.4 21.2 86 1.7 ENE 19 24 10 13 1011.1 1008.7 0.6
16/07:18am 23.6 24.2 21.1 86 1.7 ENE 19 24 10 13 1011.1 1008.7 0.6
16/07:00am 23.6 25.5 21.3 87 1.5 ENE 13 22 7 12 1011.1 1008.7 0.6
16/06:53am 23.2 24.6 21.1 88 1.4 ENE 15 22 8 12 1011.0 1008.6 0.6
16/06:30am 22.7 23.4 21.2 91 1.0 ENE 19 26 10 14 1011.3 1008.9 0.6
16/06:00am 22.5 24.2 21.0 91 1.0 ENE 13 17 7 9 1010.9 1008.5 0.6
16/05:53am 22.5 24.6 21.0 91 1.0 ENE 11 15 6 8 1010.8 1008.4 0.6
16/05:30am 22.1 24.4 20.7 92 0.9 ENE 9 15 5 8 1010.5 1008.1 0.6
16/05:00am 22.2 23.0 20.7 91 1.0 E 17 20 9 11 1010.0 1007.6 0.6
16/04:30am 22.1 23.6 20.6 91 1.0 ENE 13 17 7 9 1010.1 1007.8 0.6
16/04:20am 22.2 23.4 20.7 91 1.0 ENE 15 20 8 11 1009.8 1007.4 0.6
16/04:01am 22.2 23.4 20.7 91 1.0 ENE 15 22 8 12 1009.8 1007.4 0.6
16/04:00am 22.2 23.8 20.7 91 1.0 ENE 13 19 7 10 1009.8 1007.4 0.6
16/03:59am 22.2 23.8 20.7 91 1.0 ENE 13 19 7 10 1009.8 1007.4 0.6
16/03:30am 22.2 23.8 20.7 91 1.0 NE 13 19 7 10 1009.4 1007.0 0.6
16/03:25am 22.2 23.8 20.7 91 1.0 NE 13 19 7 10 1009.4 1007.0 0.6
16/03:00am 22.3 23.6 20.8 91 1.0 ENE 15 22 8 12 1009.1 1006.7 0.6
16/02:30am 22.3 22.7 20.6 90 1.1 ENE 19 28 10 15 1009.2 1006.8 0.6
16/02:00am 22.5 22.7 20.6 89 1.3 E 20 30 11 16 1009.1 1006.7 0.6
16/01:30am 22.4 22.9 20.9 91 1.0 E 19 24 10 13 1009.3 1006.9 0.6
16/01:00am 22.5 23.0 20.8 90 1.1 ENE 19 24 10 13 1010.0 1007.6 0.6
16/12:30am 22.5 22.3 20.6 89 1.3 E 22 32 12 17 1009.5 1007.1 0.6
16/12:00am 22.4 22.6 20.5 89 1.3 ENE 20 28 11 15 1009.8 1007.4 0.6
 
Date/Time
EST
Temp
°C
App
Temp
°C
Dew
Point
°C
Rel
Hum
%
Delta-T
°C
Wind Press
QNH
hPa
Press
MSL
hPa
Rain since
9am
mm
Dir  Spd
km/h
Gust
km/h
Spd
kts
Gust
kts
15/11:30pm 22.5 22.3 20.6 89 1.3 E 22 30 12 16 1010.1 1007.8 0.6
15/11:00pm 22.8 23.3 20.9 89 1.3 E 19 30 10 16 1010.8 1008.4 0.6
15/10:30pm 22.9 24.6 21.0 89 1.3 ESE 13 20 7 11 1011.1 1008.7 0.6
15/10:00pm 23.0 24.8 21.1 89 1.3 ESE 13 20 7 11 1011.1 1008.7 0.6
15/09:30pm 23.1 25.6 21.0 88 1.4 ESE 9 15 5 8 1011.0 1008.6 0.6
15/09:00pm 23.4 24.6 20.7 85 1.8 ENE 15 22 8 12 1010.9 1008.5 0.4
15/08:30pm 24.5 24.4 20.0 76 3.0 ENE 20 26 11 14 1010.4 1008.0 0.0
15/08:00pm 25.7 24.5 19.3 67 4.2 NE 24 32 13 17 1009.7 1007.3 0.0
15/07:30pm 25.9 24.3 20.0 70 3.9 NE 28 39 15 21 1008.9 1006.5 0.0
15/07:00pm 26.5 26.3 20.6 70 3.9 ENE 22 35 12 19 1008.6 1006.2 0.0
15/06:30pm 27.1 26.5 20.4 66 4.5 ENE 24 33 13 18 1008.0 1005.5 0.0
15/06:00pm 27.7 26.9 20.8 66 4.6 ENE 26 33 14 18 1007.3 1004.9 0.0
15/05:30pm 28.5 27.5 20.5 62 5.4 ENE 26 33 14 18 1006.9 1004.5 0.0
15/05:00pm 29.6 28.9 20.2 57 6.3 ENE 24 33 13 18 1006.3 1003.9 0.0
15/04:30pm 30.7 29.0 19.7 52 7.3 ENE 28 39 15 21 1005.9 1003.4 0.0
15/04:00pm 31.4 30.0 19.7 49 7.8 NE 26 37 14 20 1005.8 1003.3 0.0
15/03:30pm 31.2 30.1 19.5 49 7.8 NE 24 33 13 18 1006.4 1004.0 0.0
15/03:00pm 31.8 30.6 20.1 50 7.9 NE 26 35 14 19 1006.2 1003.8 0.0
15/02:30pm 33.7 32.7 19.7 43 9.4 NE 24 39 13 21 1006.5 1004.1 0.0
15/02:00pm 31.8 29.9 19.4 47 8.3 NE 28 39 15 21 1006.9 1004.5 0.0
15/01:30pm 31.2 30.2 20.5 53 7.2 NE 26 37 14 20 1007.3 1004.9 0.0
15/01:00pm 32.0 31.1 20.6 51 7.7 NE 26 39 14 21 1007.6 1005.2 0.0
15/12:30pm 30.4 28.8 20.0 53 7.0 NE 28 39 15 21 1008.1 1005.6 0.0
15/12:00pm 29.7 28.6 20.3 57 6.3 NNE 26 35 14 19 1008.7 1006.3 0.0
15/11:30am 29.4 28.8 20.5 58 6.0 NNE 24 41 13 22 1009.1 1006.7 0.0
15/11:00am 29.0 27.9 20.2 59 5.9 NE 26 39 14 21 1009.6 1007.2 0.0
15/10:30am 28.9 28.1 20.9 62 5.4 NE 26 35 14 19 1009.7 1007.3 0.0
15/10:00am 27.7 25.9 20.3 64 4.9 NE 30 39 16 21 1009.7 1007.3 0.0
15/09:30am 27.1 24.9 20.4 66 4.5 NE 32 43 17 23 1009.8 1007.4 0.0
15/09:00am 26.6 25.0 20.0 67 4.4 NE 28 41 15 22 1009.6 1007.2 7.7
15/08:30am 25.7 25.2 20.7 74 3.3 ENE 24 33 13 18 1009.8 1007.4 7.7
15/08:00am 24.4 23.4 20.5 79 2.6 ENE 26 37 14 20 1009.9 1007.5 7.7
15/07:30am 23.0 21.7 19.8 82 2.1 ENE 26 37 14 20 1010.0 1007.6 7.7
15/07:00am 22.1 20.3 19.5 85 1.7 ENE 28 41 15 22 1009.6 1007.2 7.7
15/06:30am 21.1 18.2 19.2 89 1.2 ENE 33 43 18 23 1008.9 1006.5 7.7
15/06:00am 20.8 17.6 18.7 88 1.3 ENE 33 46 18 25 1008.2 1005.8 7.7
15/05:30am 20.1 19.3 18.4 90 1.1 ENE 20 30 11 16 1008.0 1005.5 7.7
15/05:00am 20.3 22.1 18.4 89 1.2 NNE 6 17 3 9 1007.6 1005.2 7.7
15/04:30am 20.3 20.1 17.7 85 1.6 ENE 15 20 8 11 1007.0 1004.6 7.7
15/04:00am 20.5 20.1 18.1 86 1.5 ENE 17 22 9 12 1006.6 1004.2 7.7
15/03:30am 20.6 21.2 17.8 84 1.8 NNE 11 22 6 12 1006.1 1003.7 7.7
15/03:00am 21.1 21.6 17.5 80 2.3 ENE 11 17 6 9 1005.9 1003.4 7.7
15/02:30am 21.5 21.5 17.3 77 2.6 ENE 13 20 7 11 1005.8 1003.3 7.7
15/02:00am 20.9 19.7 17.5 81 2.1 ENE 20 24 11 13 1005.6 1003.1 7.7
15/01:30am 21.7 19.1 16.9 74 3.0 E 26 37 14 20 1005.7 1003.2 7.7
15/01:00am 21.4 17.3 17.4 78 2.5 ENE 35 44 19 24 1006.3 1003.9 7.7
15/12:30am 21.7 16.4 17.3 76 2.8 ENE 41 50 22 27 1006.2 1003.8 7.7
15/12:00am 20.8 17.3 18.7 88 1.3 ENE 35 48 19 26 1006.8 1004.4 7.7
 
Date/Time
EST
Temp
°C
App
Temp
°C
Dew
Point
°C
Rel
Hum
%
Delta-T
°C
Wind Press
QNH
hPa
Press
MSL
hPa
Rain since
9am
mm
Dir  Spd
km/h
Gust
km/h
Spd
kts
Gust
kts
14/11:30pm 21.4 19.4 19.9 91 1.0 ENE 30 44 16 24 1008.0 1005.5 7.7
14/11:00pm 21.5 20.9 19.8 90 1.1 ENE 22 30 12 16 1008.4 1006.0 7.5
14/10:30pm 21.5 21.1 20.1 92 0.9 E 22 30 12 16 1008.4 1006.0 7.5
14/10:00pm 21.5 20.7 20.1 92 0.9 E 24 33 13 18 1008.5 1006.1 7.3
14/09:30pm 21.8 21.7 19.9 89 1.2 E 20 32 11 17 1008.8 1006.4 6.5
14/09:00pm 22.3 23.3 20.2 88 1.4 SE 15 28 8 15 1008.0 1005.5 6.3
14/08:30pm 22.5 23.9 20.4 88 1.4 SE 13 22 7 12 1007.5 1005.1 6.1
14/08:00pm 22.5 23.7 20.0 86 1.6 S 13 24 7 13 1006.6 1004.2 5.5

Latest Capital City Observations: Canberra | Sydney | Melbourne | Brisbane | Adelaide | Perth | Hobart | Darwin

Other Formats:

Comma delimited format used in spreadsheet applications
http://www.bom.gov.au/fwo/IDQ60901/IDQ60901.99435.axf

JavaScript Object Notation format (JSON) in row-major order
http://www.bom.gov.au/fwo/IDQ60901/IDQ60901.99435.json